Time;durP1;ratioP1;P1;durP2;ratioP2;P2;SDS_P1;SDS_P2;PMS_P1;PMS_P2;Temp;Humidity;BMP_temperature;BMP_pressure;BME280_temperature;BME280_humidity;BME280_pressure;Samples;Min_cycle;Max_cycle;Signal;HPM_P1;HPM_P2
2022/01/17 00:06:22;;;;;;;20.17;13.95;;;;;;;20.43;nan;100937.03;20400335;28;103744;-66
2022/01/17 00:16:32;;;;;;;22.52;14.45;;;;;;;20.39;nan;100946.03;20381946;28;99295;-65
2022/01/17 00:26:33;;;;;;;20.70;14.02;;;;;;;20.36;nan;100941.00;20386806;28;99199;-65
2022/01/17 00:36:33;;;;;;;21.23;13.95;;;;;;;20.33;nan;100945.59;20401406;28;99292;-66
2022/01/17 00:46:35;;;;;;;19.55;13.43;;;;;;;20.29;nan;100951.06;20407686;28;101014;-66
2022/01/17 00:56:36;;;;;;;17.65;12.57;;;;;;;20.27;nan;100947.66;20400628;28;98910;-65
2022/01/17 01:06:36;;;;;;;18.15;12.60;;;;;;;20.24;nan;100950.50;20400144;28;101745;-66
2022/01/17 01:16:37;;;;;;;18.13;12.68;;;;;;;20.23;nan;100940.94;20401676;28;103126;-65
2022/01/17 01:36:57;;;;;;;17.17;10.75;;;;;;;20.20;nan;100919.25;20395417;28;100983;-65
2022/01/17 01:46:58;;;;;;;16.38;11.15;;;;;;;20.17;nan;100901.06;20397049;28;101881;-65
2022/01/17 01:56:59;;;;;;;14.75;10.57;;;;;;;20.15;nan;100901.13;20396749;28;98268;-65
2022/01/17 02:07:00;;;;;;;15.68;10.75;;;;;;;20.14;nan;100910.81;20397312;28;101486;-65
2022/01/17 02:17:05;;;;;;;13.55;10.05;;;;;;;20.12;nan;100891.66;20396203;28;101363;-65
2022/01/17 02:27:06;;;;;;;12.60;9.63;;;;;;;20.11;nan;100871.56;20395579;28;102282;-66
2022/01/17 02:37:06;;;;;;;13.55;9.75;;;;;;;20.10;nan;100872.53;20392390;28;100813;-65
2022/01/17 02:47:08;;;;;;;12.63;9.23;;;;;;;20.12;nan;100877.69;20398388;28;103777;-65
2022/01/17 02:57:10;;;;;;;11.82;8.90;;;;;;;20.11;nan;100855.78;20402210;28;100623;-65
2022/01/17 03:07:11;;;;;;;12.15;8.75;;;;;;;20.12;nan;100857.50;20393355;28;98197;-66
2022/01/17 03:17:12;;;;;;;10.85;8.23;;;;;;;20.10;nan;100843.63;20394104;28;101224;-66
2022/01/17 03:27:12;;;;;;;10.75;8.13;;;;;;;20.08;nan;100844.63;20364473;28;98770;-65
2022/01/17 03:37:14;;;;;;;9.48;7.13;;;;;;;20.07;nan;100837.72;20381233;28;100578;-66
2022/01/17 03:47:14;;;;;;;10.00;7.18;;;;;;;20.08;nan;100855.16;20393795;28;102187;-65
2022/01/17 03:57:15;;;;;;;10.65;7.88;;;;;;;20.07;nan;100841.19;20392255;28;101043;-65
2022/01/17 04:07:17;;;;;;;10.50;7.30;;;;;;;20.09;nan;100846.31;20394157;28;100631;-65
2022/01/17 04:17:17;;;;;;;8.90;6.80;;;;;;;20.07;nan;100859.59;20389277;28;101753;-65
2022/01/17 04:27:18;;;;;;;9.93;7.15;;;;;;;20.07;nan;100858.75;20396072;28;99783;-65
2022/01/17 04:37:19;;;;;;;9.27;7.20;;;;;;;20.06;nan;100828.97;20397178;28;99973;-66
2022/01/17 04:47:21;;;;;;;10.23;7.20;;;;;;;20.06;nan;100843.91;20404847;28;102131;-65
2022/01/17 04:57:23;;;;;;;9.10;6.70;;;;;;;20.04;nan;100846.63;20400105;28;100214;-65
2022/01/17 05:07:24;;;;;;;8.13;6.28;;;;;;;20.04;nan;100828.22;20402927;28;101808;-66
2022/01/17 05:27:30;;;;;;;9.07;5.93;;;;;;;20.27;nan;100810.09;20414105;28;99586;-66
2022/01/17 05:37:30;;;;;;;13.20;6.43;;;;;;;20.45;nan;100810.66;20407933;28;98781;-65
2022/01/17 05:47:31;;;;;;;11.13;5.55;;;;;;;20.56;nan;100809.94;20423379;28;102121;-67
2022/01/17 05:57:33;;;;;;;9.48;5.20;;;;;;;20.61;nan;100797.28;20432703;28;98924;-67
2022/01/17 06:07:35;;;;;;;8.40;5.80;;;;;;;20.68;nan;100802.97;20430537;28;98622;-66
2022/01/17 06:17:36;;;;;;;15.60;5.60;;;;;;;20.74;nan;100799.97;20411755;28;103756;-66
2022/01/17 06:27:36;;;;;;;15.40;5.43;;;;;;;20.78;nan;100794.38;20419834;28;99339;-66
2022/01/17 06:37:38;;;;;;;11.07;5.03;;;;;;;20.88;nan;100789.28;20403829;28;100912;-66
2022/01/17 06:47:40;;;;;;;12.93;4.60;;;;;;;20.94;nan;100761.72;20419155;28;101162;-66
2022/01/17 06:57:40;;;;;;;11.60;4.90;;;;;;;20.96;nan;100791.41;20420897;28;101944;-66
2022/01/17 07:07:41;;;;;;;7.30;4.47;;;;;;;20.99;nan;100766.66;20418248;28;100823;-67
2022/01/17 07:17:42;;;;;;;7.80;3.85;;;;;;;20.99;nan;100727.16;20412727;28;100440;-66
2022/01/17 07:27:44;;;;;;;10.73;4.40;;;;;;;21.02;nan;100748.00;20426925;28;98381;-66
2022/01/17 07:37:44;;;;;;;6.20;3.73;;;;;;;21.05;nan;100814.44;20420791;28;98299;-66
2022/01/17 07:48:07;;;;;;;6.85;3.42;;;;;;;21.10;nan;100877.31;20379161;28;100999;-66
2022/01/17 07:58:05;;;;;;;4.32;3.30;;;;;;;21.10;nan;100774.63;20353451;28;99832;-65
2022/01/17 08:08:06;;;;;;;4.78;3.35;;;;;;;21.13;nan;100769.16;20412929;28;97787;-66
2022/01/17 08:18:06;;;;;;;6.28;3.30;;;;;;;21.17;nan;100722.38;20432117;28;101591;-66
2022/01/17 08:28:07;;;;;;;8.73;2.65;;;;;;;21.28;nan;100698.75;20423659;28;100219;-68
2022/01/17 08:38:07;;;;;;;5.35;2.67;;;;;;;21.48;nan;100733.31;20425394;28;97550;-68
2022/01/17 08:48:09;;;;;;;9.20;3.08;;;;;;;21.72;nan;100796.59;20425645;28;101407;-69
2022/01/17 08:58:13;;;;;;;12.05;2.85;;;;;;;21.93;nan;100788.88;20422109;28;97875;-66
2022/01/17 09:08:14;;;;;;;3.25;2.50;;;;;;;22.01;nan;100728.50;20408573;28;102333;-64
2022/01/17 09:18:15;;;;;;;4.85;2.63;;;;;;;21.99;nan;100705.84;20409755;28;101806;-64
2022/01/17 09:28:17;;;;;;;8.80;3.08;;;;;;;21.63;nan;100678.66;20414817;28;100673;-67
2022/01/17 09:38:18;;;;;;;3.58;2.30;;;;;;;21.74;nan;100661.09;20419374;28;101682;-67
2022/01/17 09:48:22;;;;;;;4.28;2.40;;;;;;;21.72;nan;100591.84;20444433;28;98797;-66
2022/01/17 09:58:22;;;;;;;6.55;3.08;;;;;;;21.70;nan;100601.69;20419383;28;98046;-66
2022/01/17 10:08:24;;;;;;;7.35;3.63;;;;;;;21.67;nan;100580.81;20402982;28;98046;-65
2022/01/17 10:18:33;;;;;;;5.88;3.42;;;;;;;21.63;nan;100581.16;20391061;28;99212;-66
2022/01/17 10:29:53;;;;;;;10.52;4.20;;;;;;;21.55;nan;100540.41;20397025;28;98630;-63
2022/01/17 10:39:06;;;;;;;8.17;3.63;;;;;;;21.52;nan;100523.97;20313357;28;100223;-64
2022/01/17 10:49:07;;;;;;;9.38;4.45;;;;;;;21.48;nan;100504.94;20335359;28;99591;-64
2022/01/17 10:59:07;;;;;;;8.90;5.90;;;;;;;21.48;nan;100493.56;20365898;28;101435;-65
2022/01/17 11:09:10;;;;;;;19.50;8.45;;;;;;;21.56;nan;100468.34;20371651;28;98602;-65
2022/01/17 11:20:04;;;;;;;23.83;8.68;;;;;;;21.59;nan;100435.63;20338559;28;97599;-64
2022/01/17 11:29:31;;;;;;;26.25;9.23;;;;;;;21.55;nan;100398.13;20393315;28;102219;-65
2022/01/17 11:39:32;;;;;;;26.67;10.63;;;;;;;21.54;nan;100421.97;20391023;28;99746;-65
2022/01/17 11:49:38;;;;;;;20.52;8.93;;;;;;;21.58;nan;100419.00;20409724;28;100919;-64
2022/01/17 11:59:46;;;;;;;17.00;8.55;;;;;;;21.58;nan;100419.00;20411338;28;102015;-66
2022/01/17 12:09:47;;;;;;;13.40;7.90;;;;;;;21.55;nan;100376.22;20412980;28;102392;-64
2022/01/17 12:20:14;;;;;;;15.50;7.83;;;;;;;21.52;nan;100395.75;20424153;28;102215;-65
2022/01/17 12:30:16;;;;;;;10.93;7.50;;;;;;;21.48;nan;100367.94;20438905;28;97705;-65
2022/01/17 12:40:24;;;;;;;12.63;7.45;;;;;;;21.45;nan;100349.75;20415600;28;97347;-64
2022/01/17 12:50:27;;;;;;;9.82;7.00;;;;;;;21.49;nan;100353.00;20413414;28;97003;-65
2022/01/17 13:00:28;;;;;;;13.77;6.80;;;;;;;21.51;nan;100333.47;20400387;28;99471;-64
2022/01/17 13:10:29;;;;;;;13.18;7.03;;;;;;;21.52;nan;100298.25;20384631;28;98689;-65
2022/01/17 13:20:29;;;;;;;12.25;7.32;;;;;;;21.46;nan;100298.75;20374308;28;98900;-64
2022/01/17 13:30:34;;;;;;;11.13;6.95;;;;;;;21.47;nan;100286.41;20385405;28;103114;-64
2022/01/17 13:40:37;;;;;;;8.50;6.40;;;;;;;21.43;nan;100305.09;20376126;28;98781;-65
2022/01/17 13:50:44;;;;;;;16.57;7.43;;;;;;;21.43;nan;100305.09;20367517;28;101767;-65
2022/01/17 14:00:45;;;;;;;8.48;5.70;;;;;;;21.48;nan;100269.66;20393098;28;98830;-63
2022/01/17 14:10:50;;;;;;;12.88;6.05;;;;;;;21.52;nan;100232.41;20392432;28;100719;-65
2022/01/17 14:20:55;;;;;;;9.60;5.65;;;;;;;21.54;nan;100245.44;20387213;28;98132;-65
2022/01/17 14:30:57;;;;;;;10.93;5.38;;;;;;;21.56;nan;100251.44;20396212;28;98809;-65
2022/01/17 14:40:58;;;;;;;9.65;5.40;;;;;;;21.58;nan;100254.78;20395500;28;101076;-66
2022/01/17 14:51:20;;;;;;;12.02;6.07;;;;;;;21.54;nan;100272.59;20391520;28;101637;-65
2022/01/17 15:01:27;;;;;;;9.32;5.40;;;;;;;21.52;nan;100263.16;20406862;28;99785;-65
2022/01/17 15:11:28;;;;;;;10.65;6.00;;;;;;;21.52;nan;100278.97;20396794;28;100298;-67
2022/01/17 15:21:30;;;;;;;7.40;5.85;;;;;;;21.52;nan;100266.66;20386501;28;102027;-67
2022/01/17 15:31:33;;;;;;;9.23;5.47;;;;;;;21.52;nan;100305.31;20392049;28;102207;-67
2022/01/17 15:41:34;;;;;;;9.73;5.35;;;;;;;21.50;nan;100315.97;20394031;28;98812;-68
2022/01/17 15:51:35;;;;;;;9.25;5.05;;;;;;;21.48;nan;100317.06;20413453;28;100017;-68
2022/01/17 16:01:35;;;;;;;8.95;4.97;;;;;;;21.44;nan;100327.81;20403239;28;102128;-65
2022/01/17 16:11:37;;;;;;;14.50;4.53;;;;;;;21.39;nan;100351.06;20398315;28;99003;-67
2022/01/17 16:21:38;;;;;;;7.68;4.38;;;;;;;21.35;nan;100360.19;20399239;28;99414;-66
2022/01/17 16:31:40;;;;;;;9.48;4.10;;;;;;;21.31;nan;100356.09;20405035;28;97792;-66
2022/01/17 16:41:40;;;;;;;7.38;4.32;;;;;;;21.28;nan;100369.53;20441417;28;102855;-66
2022/01/17 16:51:41;;;;;;;11.20;4.03;;;;;;;21.10;nan;100393.69;20357758;28;101025;-66
2022/01/17 17:01:41;;;;;;;8.68;4.30;;;;;;;21.19;nan;100507.16;20364411;28;101860;-67
2022/01/17 17:11:42;;;;;;;8.10;4.70;;;;;;;21.23;nan;100529.69;20401948;28;101002;-68
2022/01/17 17:21:43;;;;;;;14.48;5.90;;;;;;;21.28;nan;100572.31;20392253;28;99825;-68
2022/01/17 17:31:46;;;;;;;9.25;6.10;;;;;;;21.38;nan;100604.91;20402225;28;99925;-69
2022/01/17 17:41:47;;;;;;;14.95;7.03;;;;;;;21.44;nan;100604.44;20345037;28;98803;-67
2022/01/17 17:51:47;;;;;;;12.05;7.88;;;;;;;21.46;nan;100614.88;20338316;28;99743;-70
2022/01/17 18:01:50;;;;;;;11.88;8.15;;;;;;;21.45;nan;100650.09;20351015;28;99653;-71
2022/01/17 18:11:53;;;;;;;12.93;8.60;;;;;;;21.47;nan;100687.69;20397074;28;98807;-70
2022/01/17 18:21:57;;;;;;;13.35;7.78;;;;;;;21.48;nan;100691.16;20389676;28;101874;-69
2022/01/17 18:31:59;;;;;;;17.38;10.20;;;;;;;21.51;nan;100735.75;20386432;28;100073;-73
2022/01/17 18:42:03;;;;;;;34.58;17.73;;;;;;;21.50;nan;100737.50;20373917;28;99010;-69
2022/01/17 18:52:10;;;;;;;29.13;14.30;;;;;;;21.52;nan;100754.06;20343487;28;97668;-71
2022/01/17 19:02:11;;;;;;;32.95;13.55;;;;;;;21.52;nan;100792.72;20385075;28;98380;-69
2022/01/17 19:12:17;;;;;;;21.05;11.95;;;;;;;21.54;nan;100786.38;20342448;28;98261;-70
2022/01/17 19:22:19;;;;;;;20.75;10.73;;;;;;;21.47;nan;100813.31;20340388;28;99605;-69
2022/01/17 19:32:25;;;;;;;17.80;9.18;;;;;;;21.42;nan;100832.94;20358807;28;101015;-68
2022/01/17 19:42:27;;;;;;;16.08;7.13;;;;;;;21.26;nan;100842.84;20364226;28;103078;-68
2022/01/17 19:52:27;;;;;;;13.15;6.55;;;;;;;21.31;nan;100888.16;20331869;28;102385;-68
2022/01/17 20:02:28;;;;;;;12.85;6.10;;;;;;;21.32;nan;100913.53;20360497;28;98143;-68
2022/01/17 20:12:28;;;;;;;12.83;6.03;;;;;;;21.32;nan;100941.69;20355032;28;104748;-67
2022/01/17 20:22:29;;;;;;;10.85;4.60;;;;;;;21.29;nan;100966.44;20414989;28;100352;-68
2022/01/17 20:32:31;;;;;;;8.63;4.75;;;;;;;21.26;nan;100995.63;20412997;28;102043;-68
2022/01/17 20:42:32;;;;;;;8.73;4.43;;;;;;;21.22;nan;101012.59;20422355;28;98565;-67
2022/01/17 20:52:33;;;;;;;6.85;3.88;;;;;;;21.18;nan;101022.50;20412421;28;101058;-68
2022/01/17 21:02:34;;;;;;;10.85;4.00;;;;;;;21.15;nan;101008.69;20416240;28;104980;-68
2022/01/17 21:12:36;;;;;;;7.75;3.65;;;;;;;21.13;nan;101043.03;20425032;28;97406;-67
2022/01/17 21:22:37;;;;;;;6.10;3.05;;;;;;;21.07;nan;101053.97;20423057;28;98184;-68
2022/01/17 21:32:40;;;;;;;6.28;3.28;;;;;;;21.03;nan;101069.13;20397647;28;99732;-68
2022/01/17 21:42:42;;;;;;;5.13;3.00;;;;;;;20.99;nan;101086.06;20402622;28;101335;-68
2022/01/17 21:52:44;;;;;;;3.78;2.75;;;;;;;20.96;nan;101099.44;20404341;28;101494;-67
2022/01/17 22:02:46;;;;;;;4.55;2.90;;;;;;;20.93;nan;101110.16;20400185;28;101368;-67
2022/01/17 22:12:46;;;;;;;6.10;2.90;;;;;;;20.87;nan;101135.09;20404083;28;101585;-68
2022/01/17 22:22:47;;;;;;;2.92;2.40;;;;;;;20.89;nan;101150.78;20395627;28;100858;-68
2022/01/17 22:32:50;;;;;;;3.47;2.42;;;;;;;20.88;nan;101149.94;20397043;28;98717;-67
2022/01/17 22:42:51;;;;;;;3.70;2.33;;;;;;;20.86;nan;101145.72;20391888;28;100677;-67
2022/01/17 22:52:55;;;;;;;4.30;2.45;;;;;;;20.79;nan;101154.00;20395538;28;101911;-68
2022/01/17 23:02:56;;;;;;;4.82;2.58;;;;;;;20.74;nan;101169.25;20392849;28;98640;-67
2022/01/17 23:12:58;;;;;;;3.55;2.05;;;;;;;20.72;nan;101175.56;20390828;28;98406;-67
2022/01/17 23:23:02;;;;;;;3.10;1.90;;;;;;;20.68;nan;101182.75;20388065;28;100981;-67
2022/01/17 23:43:22;;;;;;;4.03;1.90;;;;;;;20.58;nan;101215.84;20391631;28;98902;-68
2022/01/17 23:53:22;;;;;;;3.70;1.77;;;;;;;20.57;nan;101214.16;20390366;28;98469;-68
